createdAt,value
2023-05-25T00:01:36.617Z,12.52
2023-05-25T00:04:04.585Z,12.57
2023-05-25T00:06:32.805Z,13.20
2023-05-25T00:08:59.419Z,11.32
2023-05-25T00:11:26.695Z,13.93
2023-05-25T00:13:53.533Z,12.90
2023-05-25T00:16:20.631Z,12.20
2023-05-25T00:18:48.744Z,12.88
2023-05-25T00:21:16.238Z,12.02
2023-05-25T00:23:43.372Z,11.35
2023-05-25T00:26:10.000Z,12.27
2023-05-25T00:28:36.597Z,11.68
2023-05-25T00:31:03.241Z,11.15
2023-05-25T00:33:30.151Z,11.93
2023-05-25T00:35:57.402Z,10.90
2023-05-25T00:38:24.055Z,11.35
2023-05-25T00:40:56.273Z,10.55
2023-05-25T00:43:23.334Z,11.20
2023-05-25T00:45:51.733Z,11.57
2023-05-25T00:48:18.985Z,10.25
2023-05-25T00:50:45.993Z,10.15
2023-05-25T00:53:13.922Z,11.07
2023-05-25T00:56:14.162Z,10.70
2023-05-25T00:58:42.829Z,10.57
2023-05-25T01:01:12.850Z,9.73
2023-05-25T01:03:45.758Z,10.65
2023-05-25T01:06:15.941Z,11.27
2023-05-25T01:08:47.782Z,9.05
2023-05-25T01:11:16.277Z,11.18
2023-05-25T01:13:43.281Z,10.43
2023-05-25T01:16:11.907Z,10.05
2023-05-25T01:18:41.898Z,9.30
2023-05-25T01:21:15.029Z,9.50
2023-05-25T01:24:17.621Z,8.10
2023-05-25T01:26:53.722Z,9.20
2023-05-25T01:29:22.345Z,9.23
2023-05-25T01:31:50.472Z,10.57
2023-05-25T01:34:17.413Z,9.88
2023-05-25T01:36:44.072Z,10.90
2023-05-25T01:39:11.170Z,8.80
2023-05-25T01:41:37.748Z,8.77
2023-05-25T01:44:07.485Z,9.77
2023-05-25T01:46:39.647Z,9.27
2023-05-25T01:49:19.827Z,9.50
2023-05-25T01:52:07.946Z,7.93
2023-05-25T01:54:41.016Z,8.02
2023-05-25T01:57:12.581Z,9.10
2023-05-25T01:59:43.416Z,8.68
2023-05-25T02:02:12.513Z,8.80
2023-05-25T02:04:39.170Z,8.80
2023-05-25T02:07:06.190Z,6.97
2023-05-25T02:09:32.923Z,7.22
2023-05-25T02:11:59.509Z,8.27
2023-05-25T02:14:26.110Z,8.55
2023-05-25T02:16:52.694Z,7.03
2023-05-25T02:19:19.293Z,8.60
2023-05-25T02:21:46.348Z,10.55
2023-05-25T02:24:12.917Z,8.63
2023-05-25T02:26:39.722Z,7.32
2023-05-25T02:29:06.710Z,9.02
2023-05-25T02:31:33.490Z,7.70
2023-05-25T02:34:00.191Z,7.22
2023-05-25T02:36:27.169Z,7.82
2023-05-25T02:38:53.960Z,5.80
2023-05-25T02:41:21.395Z,8.82
2023-05-25T02:43:48.054Z,7.53
2023-05-25T02:46:14.719Z,5.95
2023-05-25T02:48:42.092Z,7.15
2023-05-25T02:51:08.702Z,8.43
2023-05-25T02:53:35.496Z,6.47
2023-05-25T02:56:03.934Z,6.88
2023-05-25T02:58:31.038Z,6.13
2023-05-25T03:01:00.244Z,5.90
2023-05-25T03:03:27.767Z,7.35
2023-05-25T03:05:55.148Z,6.20
2023-05-25T03:08:21.792Z,6.10
2023-05-25T03:10:48.686Z,6.75
2023-05-25T03:13:15.529Z,6.15
2023-05-25T03:15:42.162Z,5.80
2023-05-25T03:18:08.843Z,6.40
2023-05-25T03:20:35.502Z,6.18
2023-05-25T03:23:02.560Z,6.95
2023-05-25T03:25:29.173Z,4.40
2023-05-25T03:27:55.798Z,5.53
2023-05-25T03:30:23.332Z,6.43
2023-05-25T03:32:49.938Z,6.85
2023-05-25T03:35:16.654Z,6.53
2023-05-25T03:37:43.195Z,5.90
2023-05-25T03:40:11.501Z,5.18
2023-05-25T03:42:38.496Z,5.32
2023-05-25T03:45:06.214Z,5.35
2023-05-25T03:47:33.050Z,5.63
2023-05-25T03:49:59.718Z,5.10
2023-05-25T03:52:26.309Z,5.82
2023-05-25T03:54:52.864Z,4.25
2023-05-25T03:57:19.402Z,5.47
2023-05-25T03:59:46.918Z,6.68
2023-05-25T04:02:13.530Z,5.90
2023-05-25T04:04:41.829Z,5.82
2023-05-25T04:07:08.578Z,5.90
2023-05-25T04:09:35.118Z,5.90
2023-05-25T04:12:02.349Z,6.60
2023-05-25T04:14:28.977Z,7.22
2023-05-25T04:16:55.759Z,6.35
2023-05-25T04:19:22.307Z,5.72
2023-05-25T04:21:48.858Z,7.68
2023-05-25T04:24:15.434Z,4.85
2023-05-25T04:26:42.021Z,5.35
2023-05-25T04:29:10.036Z,5.65
2023-05-25T04:31:36.867Z,4.85
2023-05-25T04:34:03.817Z,5.88
2023-05-25T04:36:32.657Z,4.47
2023-05-25T04:39:03.069Z,5.20
2023-05-25T04:41:33.908Z,4.88
2023-05-25T04:44:07.985Z,4.38
2023-05-25T04:46:40.773Z,7.22
2023-05-25T04:49:10.459Z,5.93
2023-05-25T04:51:37.452Z,4.78
2023-05-25T04:54:04.090Z,5.13
2023-05-25T04:56:31.154Z,5.10
2023-05-25T04:58:57.794Z,5.82
2023-05-25T05:01:26.414Z,4.25
2023-05-25T05:03:53.200Z,5.50
2023-05-25T05:06:19.918Z,4.68
2023-05-25T05:08:46.475Z,3.63
2023-05-25T05:11:13.085Z,4.68
2023-05-25T05:13:39.616Z,6.03
2023-05-25T05:16:06.575Z,5.35
2023-05-25T05:18:33.179Z,4.43
2023-05-25T05:20:59.924Z,5.15
2023-05-25T05:23:26.742Z,6.05
2023-05-25T05:25:53.318Z,7.15
2023-05-25T05:28:19.913Z,3.55
2023-05-25T05:30:47.377Z,6.40
2023-05-25T05:33:14.448Z,5.55
2023-05-25T05:35:41.200Z,4.63
2023-05-25T05:38:07.803Z,5.15
2023-05-25T05:40:34.379Z,4.97
2023-05-25T05:43:01.167Z,3.65
2023-05-25T05:45:27.762Z,7.95
2023-05-25T05:47:54.430Z,4.97
2023-05-25T05:50:21.197Z,4.50
2023-05-25T05:52:48.261Z,5.28
2023-05-25T05:55:14.831Z,5.10
2023-05-25T05:57:41.564Z,6.07
2023-05-25T06:00:09.122Z,4.95
2023-05-25T06:02:35.959Z,4.45
2023-05-25T06:05:02.862Z,5.82
2023-05-25T06:07:30.862Z,7.18
2023-05-25T06:09:57.673Z,4.68
2023-05-25T06:12:24.292Z,4.55
2023-05-25T06:14:52.172Z,6.47
2023-05-25T06:17:19.174Z,5.70
2023-05-25T06:19:46.084Z,5.38
2023-05-25T06:22:12.656Z,4.38
2023-05-25T06:24:39.206Z,6.00
2023-05-25T06:27:05.825Z,5.10
2023-05-25T06:29:32.447Z,4.43
2023-05-25T06:31:59.094Z,3.97
2023-05-25T06:34:26.022Z,4.40
2023-05-25T06:36:53.045Z,4.68
2023-05-25T06:39:20.281Z,7.10
2023-05-25T06:41:46.873Z,7.28
2023-05-25T06:44:13.520Z,4.50
2023-05-25T06:46:40.129Z,3.50
2023-05-25T06:49:06.875Z,4.60
2023-05-25T06:51:33.667Z,4.88
2023-05-25T06:54:00.242Z,4.47
2023-05-25T06:56:27.957Z,5.15
2023-05-25T06:58:54.592Z,3.88
2023-05-25T07:01:21.325Z,5.20
2023-05-25T07:03:47.945Z,5.40
2023-05-25T07:06:15.246Z,5.03
2023-05-25T07:08:41.812Z,4.85
2023-05-25T07:11:10.698Z,6.03
2023-05-25T07:13:37.328Z,3.90
2023-05-25T07:16:03.939Z,4.68
2023-05-25T07:18:30.773Z,4.43
2023-05-25T07:20:57.312Z,6.05
2023-05-25T07:23:23.863Z,4.63
2023-05-25T07:25:50.524Z,5.22
2023-05-25T07:28:17.105Z,4.35
2023-05-25T07:30:43.723Z,4.85
2023-05-25T07:33:10.428Z,4.55
2023-05-25T07:35:37.018Z,5.60
2023-05-25T07:38:06.987Z,4.43
2023-05-25T07:40:33.585Z,3.92
2023-05-25T07:43:00.280Z,4.25
2023-05-25T07:45:26.900Z,4.93
2023-05-25T07:47:53.494Z,5.85
2023-05-25T07:50:20.188Z,3.95
2023-05-25T07:52:46.756Z,5.20
2023-05-25T07:55:13.609Z,5.40
2023-05-25T07:57:40.222Z,4.05
2023-05-25T08:00:11.123Z,3.88
2023-05-25T08:02:37.881Z,3.88
2023-05-25T08:05:06.171Z,4.03
2023-05-25T08:07:33.648Z,5.50
2023-05-25T08:10:00.572Z,4.68
2023-05-25T08:12:46.169Z,4.18
2023-05-25T08:15:14.047Z,4.70
2023-05-25T08:17:41.667Z,4.03
2023-05-25T08:20:09.227Z,3.58
2023-05-25T08:22:36.337Z,3.45
2023-05-25T08:25:04.558Z,4.18
2023-05-25T08:27:32.785Z,3.70
2023-05-25T08:30:01.650Z,3.75
2023-05-25T08:32:28.292Z,3.47
2023-05-25T08:34:54.941Z,4.10
2023-05-25T08:37:23.638Z,3.25
2023-05-25T08:39:50.565Z,4.35
2023-05-25T08:42:17.163Z,4.07
2023-05-25T08:44:43.915Z,4.65
2023-05-25T08:47:12.481Z,4.32
2023-05-25T08:49:39.597Z,4.35
2023-05-25T08:52:10.966Z,6.82
2023-05-25T08:54:38.005Z,3.83
2023-05-25T08:57:17.203Z,4.40
2023-05-25T08:59:58.786Z,3.78
2023-05-25T09:02:39.449Z,4.70
2023-05-25T09:05:06.886Z,3.90
2023-05-25T09:07:34.241Z,3.95
2023-05-25T09:10:01.629Z,4.80
2023-05-25T09:12:31.883Z,4.28
2023-05-25T09:14:59.214Z,4.93
2023-05-25T09:17:26.806Z,3.72
2023-05-25T09:19:53.480Z,3.22
2023-05-25T09:22:20.062Z,3.92
2023-05-25T09:24:47.206Z,4.00
2023-05-25T09:27:23.732Z,4.35
2023-05-25T09:29:51.275Z,4.78
2023-05-25T09:32:18.986Z,3.28
2023-05-25T09:34:47.147Z,3.67
2023-05-25T09:37:19.437Z,3.42
2023-05-25T09:39:47.655Z,3.40
2023-05-25T09:42:14.452Z,4.40
2023-05-25T09:44:42.763Z,2.85
2023-05-25T09:47:09.951Z,2.38
2023-05-25T09:49:36.565Z,2.83
2023-05-25T09:52:03.328Z,3.95
2023-05-25T09:54:30.123Z,2.85
2023-05-25T09:56:56.741Z,2.53
2023-05-25T09:59:23.647Z,3.70
2023-05-25T10:01:53.797Z,4.40
2023-05-25T10:04:20.975Z,6.93
2023-05-25T10:06:50.028Z,8.43
2023-05-25T10:09:19.619Z,6.50
2023-05-25T10:11:46.557Z,6.10
2023-05-25T10:14:17.955Z,9.55
2023-05-25T10:16:49.977Z,4.28
2023-05-25T10:19:24.430Z,9.85
2023-05-25T10:22:19.386Z,5.20
2023-05-25T10:24:57.252Z,6.60
2023-05-25T10:27:39.256Z,8.10
2023-05-25T10:30:10.007Z,7.03
2023-05-25T10:32:41.036Z,6.47
2023-05-25T10:35:09.067Z,5.85
2023-05-25T10:37:37.181Z,6.00
2023-05-25T10:40:08.562Z,6.78
2023-05-25T10:42:37.469Z,8.23
2023-05-25T10:45:08.688Z,12.95
2023-05-25T10:47:38.117Z,7.32
2023-05-25T10:50:05.174Z,6.78
2023-05-25T10:52:32.568Z,4.63
2023-05-25T10:55:04.289Z,6.53
2023-05-25T10:57:31.193Z,5.50
2023-05-25T11:00:10.271Z,6.28
2023-05-25T11:02:55.985Z,7.22
2023-05-25T11:05:34.765Z,6.68
2023-05-25T11:08:09.251Z,6.05
2023-05-25T11:10:53.136Z,5.65
2023-05-25T11:16:14.364Z,7.82
2023-05-25T11:18:42.144Z,5.82
2023-05-25T11:21:25.026Z,5.80
2023-05-25T11:23:56.364Z,4.22
2023-05-25T11:26:30.950Z,5.80
2023-05-25T11:29:01.952Z,5.82
2023-05-25T11:31:36.023Z,6.28
2023-05-25T11:34:06.140Z,7.82
2023-05-25T11:36:35.420Z,5.50
2023-05-25T11:39:16.951Z,6.45
2023-05-25T11:41:50.072Z,4.57
2023-05-25T11:44:36.289Z,7.20
2023-05-25T11:47:08.858Z,4.50
2023-05-25T11:49:46.098Z,5.15
2023-05-25T11:52:15.418Z,5.55
2023-05-25T11:54:42.296Z,4.15
2023-05-25T11:57:16.710Z,4.03
2023-05-25T11:59:54.712Z,6.60
2023-05-25T12:02:23.346Z,3.83
2023-05-25T12:04:58.443Z,4.97
2023-05-25T12:07:27.092Z,5.47
2023-05-25T12:10:07.921Z,5.05
2023-05-25T12:12:41.221Z,3.58
2023-05-25T12:15:10.632Z,4.05
2023-05-25T12:17:38.486Z,4.30
2023-05-25T12:20:07.611Z,5.28
2023-05-25T12:22:34.583Z,5.78
2023-05-25T12:25:01.270Z,4.40
2023-05-25T12:27:27.855Z,4.50
2023-05-25T12:29:59.074Z,5.85
2023-05-25T12:32:25.879Z,6.20
2023-05-25T12:35:02.085Z,3.47
2023-05-25T12:37:28.819Z,4.57
2023-05-25T12:39:55.739Z,4.70
2023-05-25T12:42:23.234Z,3.40
2023-05-25T12:44:55.510Z,4.10
2023-05-25T12:47:23.580Z,3.55
2023-05-25T12:49:52.093Z,5.53
2023-05-25T12:52:38.721Z,2.72
2023-05-25T12:55:27.312Z,3.38
2023-05-25T12:58:04.802Z,3.38
2023-05-25T13:00:33.044Z,3.85
2023-05-25T13:03:00.309Z,4.05
2023-05-25T13:05:29.506Z,4.13
2023-05-25T13:07:58.205Z,5.50
2023-05-25T13:10:25.718Z,5.40
2023-05-25T13:12:55.553Z,3.60
2023-05-25T13:15:22.273Z,4.70
2023-05-25T13:17:50.784Z,4.53
2023-05-25T13:20:19.721Z,4.63
2023-05-25T13:22:48.600Z,5.18
2023-05-25T13:25:15.330Z,3.35
2023-05-25T13:27:46.228Z,7.13
2023-05-25T13:30:13.722Z,5.60
2023-05-25T13:32:41.853Z,3.97
2023-05-25T13:35:09.309Z,7.07
2023-05-25T13:37:35.939Z,6.18
2023-05-25T13:40:03.195Z,4.35
2023-05-25T13:42:29.754Z,5.25
2023-05-25T13:44:56.332Z,7.57
2023-05-25T13:47:23.123Z,7.68
2023-05-25T13:49:49.870Z,6.82
2023-05-25T13:52:16.557Z,4.68
2023-05-25T13:54:43.174Z,5.13
2023-05-25T13:57:09.972Z,4.43
2023-05-25T13:59:37.611Z,7.32
2023-05-25T14:02:04.526Z,4.20
2023-05-25T14:04:31.106Z,8.82
2023-05-25T14:06:57.716Z,9.90
2023-05-25T14:09:24.299Z,5.05
2023-05-25T14:11:53.632Z,5.35
2023-05-25T14:14:30.585Z,7.03
2023-05-25T14:16:59.846Z,5.82
2023-05-25T14:19:26.488Z,5.63
2023-05-25T14:22:08.124Z,7.82
2023-05-25T14:24:39.632Z,9.95
2023-05-25T14:27:07.327Z,3.90
2023-05-25T14:29:34.651Z,5.00
2023-05-25T14:32:01.587Z,11.57
2023-05-25T14:34:29.642Z,4.95
2023-05-25T14:36:56.310Z,9.35
2023-05-25T14:39:22.950Z,8.02
2023-05-25T14:41:49.558Z,6.07
2023-05-25T14:44:16.628Z,6.50
2023-05-25T14:46:43.383Z,3.90
2023-05-25T14:49:10.247Z,4.75
2023-05-25T14:51:37.910Z,8.05
2023-05-25T14:54:06.381Z,8.10
2023-05-25T14:56:33.355Z,6.43
2023-05-25T14:59:00.089Z,9.00
2023-05-25T15:01:29.155Z,10.77
2023-05-25T15:03:55.982Z,10.68
2023-05-25T15:06:22.693Z,11.60
2023-05-25T15:08:49.231Z,8.32
2023-05-25T15:11:15.841Z,10.55
2023-05-25T15:13:42.435Z,12.40
2023-05-25T15:16:12.791Z,14.23
2023-05-25T15:18:39.526Z,11.88
2023-05-25T15:21:06.297Z,10.43
2023-05-25T15:23:32.877Z,11.95
2023-05-25T15:26:04.531Z,12.55
2023-05-25T15:28:31.651Z,10.57
2023-05-25T15:30:59.956Z,9.70
2023-05-25T15:33:43.554Z,13.27
2023-05-25T15:36:15.174Z,14.10
2023-05-25T15:38:43.293Z,12.82
2023-05-25T15:41:10.293Z,15.95
2023-05-25T15:43:36.921Z,18.77
2023-05-25T15:46:03.482Z,11.80
2023-05-25T15:48:30.096Z,12.77
2023-05-25T15:50:56.693Z,13.88
2023-05-25T15:53:23.286Z,14.45
2023-05-25T15:55:49.870Z,12.60
2023-05-25T15:58:17.780Z,11.80
2023-05-25T16:00:44.344Z,10.95
2023-05-25T16:03:11.001Z,17.30
2023-05-25T16:05:37.590Z,18.33
2023-05-25T16:08:04.162Z,14.60
2023-05-25T16:10:30.768Z,12.50
2023-05-25T16:12:57.311Z,13.63
2023-05-25T16:15:24.194Z,15.43
2023-05-25T16:17:50.866Z,14.07
2023-05-25T16:20:17.686Z,13.38
2023-05-25T16:22:44.285Z,13.68
2023-05-25T16:25:10.938Z,14.88
2023-05-25T16:27:37.565Z,12.55
2023-05-25T16:30:04.648Z,12.20
2023-05-25T16:32:32.751Z,15.30
2023-05-25T16:34:59.591Z,14.07
2023-05-25T16:37:26.204Z,13.73
2023-05-25T16:39:52.850Z,13.93
2023-05-25T16:42:19.630Z,13.48
2023-05-25T16:44:46.177Z,13.32
2023-05-25T16:47:12.750Z,13.25
2023-05-25T16:49:39.311Z,16.08
2023-05-25T16:52:05.951Z,14.23
2023-05-25T16:54:32.534Z,12.55
2023-05-25T16:56:59.139Z,18.70
2023-05-25T16:59:25.746Z,15.35
2023-05-25T17:01:52.462Z,17.40
2023-05-25T17:04:19.103Z,17.63
2023-05-25T17:06:45.647Z,15.57
2023-05-25T17:09:12.269Z,16.80
2023-05-25T17:11:38.854Z,20.65
2023-05-25T17:14:05.915Z,19.77
2023-05-25T17:16:32.570Z,18.33
2023-05-25T17:18:59.218Z,19.20
2023-05-25T17:21:25.780Z,21.25
2023-05-25T17:23:52.379Z,22.75
2023-05-25T17:26:18.926Z,23.30
2023-05-25T17:28:45.475Z,22.67
2023-05-25T17:31:12.076Z,19.88
2023-05-25T17:33:39.155Z,24.05
2023-05-25T17:36:06.192Z,19.83
2023-05-25T17:38:35.012Z,22.92
2023-05-25T17:41:01.582Z,23.20
2023-05-25T17:43:28.264Z,21.50
2023-05-25T17:45:54.971Z,20.52
2023-05-25T17:48:21.660Z,21.92
2023-05-25T17:50:48.311Z,20.83
2023-05-25T17:53:14.929Z,16.20
2023-05-25T17:55:41.568Z,18.00
2023-05-25T17:58:08.204Z,21.00
2023-05-25T18:00:34.832Z,18.27
2023-05-25T18:03:01.597Z,25.13
2023-05-25T18:05:28.298Z,18.98
2023-05-25T18:07:54.865Z,18.73
2023-05-25T18:10:21.486Z,16.63
2023-05-25T18:12:49.362Z,19.63
2023-05-25T18:15:16.050Z,16.02
2023-05-25T18:17:42.662Z,16.13
2023-05-25T18:20:09.976Z,21.70
2023-05-25T18:22:37.020Z,16.45
2023-05-25T18:25:04.601Z,22.17
2023-05-25T18:27:31.236Z,21.63
2023-05-25T18:29:58.927Z,18.83
2023-05-25T18:32:25.536Z,19.92
2023-05-25T18:34:52.100Z,17.20
2023-05-25T18:37:18.814Z,25.20
2023-05-25T18:39:45.456Z,18.33
2023-05-25T18:42:12.103Z,23.50
2023-05-25T18:44:38.718Z,16.23
2023-05-25T18:47:05.687Z,22.02
2023-05-25T18:49:34.518Z,14.80
2023-05-25T18:52:01.611Z,18.13
2023-05-25T18:54:28.311Z,16.67
2023-05-25T18:56:54.915Z,18.10
2023-05-25T18:59:21.529Z,17.83
2023-05-25T19:01:48.168Z,17.42
2023-05-25T19:04:14.846Z,22.10
2023-05-25T19:06:41.526Z,18.58
2023-05-25T19:09:08.107Z,16.25
2023-05-25T19:11:34.735Z,17.17
2023-05-25T19:14:01.301Z,17.13
2023-05-25T19:16:27.978Z,15.68
2023-05-25T19:18:54.690Z,16.88
2023-05-25T19:21:21.230Z,14.50
2023-05-25T19:23:47.860Z,21.10
2023-05-25T19:26:14.574Z,15.85
2023-05-25T19:28:41.103Z,14.27
2023-05-25T19:31:07.677Z,15.90
2023-05-25T19:33:34.394Z,16.90
2023-05-25T19:36:01.124Z,12.98
2023-05-25T19:38:34.294Z,12.40
2023-05-25T19:41:07.318Z,16.67
2023-05-25T19:43:34.083Z,14.60
2023-05-25T19:46:00.714Z,14.18
2023-05-25T19:48:27.487Z,15.65
2023-05-25T19:50:54.115Z,14.43
2023-05-25T19:53:20.740Z,15.00
2023-05-25T19:55:47.365Z,12.90
2023-05-25T19:58:13.977Z,16.83
2023-05-25T20:00:40.661Z,13.35
2023-05-25T20:03:07.312Z,15.93
2023-05-25T20:05:34.004Z,14.73
2023-05-25T20:08:00.654Z,16.35
2023-05-25T20:10:27.212Z,16.02
2023-05-25T20:12:53.915Z,17.75
2023-05-25T20:15:20.569Z,12.55
2023-05-25T20:17:47.148Z,13.70
2023-05-25T20:20:13.850Z,15.50
2023-05-25T20:22:41.041Z,13.52
2023-05-25T20:25:07.818Z,11.45
2023-05-25T20:27:34.477Z,12.95
2023-05-25T20:30:01.371Z,14.43
2023-05-25T20:32:27.974Z,16.00
2023-05-25T20:34:54.549Z,15.05
2023-05-25T20:37:21.185Z,16.17
2023-05-25T20:39:47.773Z,13.20
2023-05-25T20:42:14.476Z,15.98
2023-05-25T20:44:41.351Z,17.65
2023-05-25T20:47:08.061Z,14.48
2023-05-25T20:49:34.773Z,16.95
2023-05-25T20:52:01.544Z,16.55
2023-05-25T20:54:28.137Z,20.30
2023-05-25T20:56:54.801Z,18.70
2023-05-25T20:59:22.105Z,18.65
2023-05-25T21:01:48.895Z,17.70
2023-05-25T21:04:15.742Z,17.27
2023-05-25T21:06:42.500Z,20.10
2023-05-25T21:09:09.123Z,19.45
2023-05-25T21:11:36.024Z,23.27
2023-05-25T21:14:03.272Z,19.95
2023-05-25T21:16:29.942Z,27.60
2023-05-25T21:18:56.618Z,22.00
2023-05-25T21:21:23.291Z,25.33
2023-05-25T21:23:49.891Z,25.38
2023-05-25T21:26:16.515Z,25.60
2023-05-25T21:28:43.092Z,27.27
2023-05-25T21:31:09.838Z,24.13
2023-05-25T21:33:37.663Z,27.00
2023-05-25T21:36:04.323Z,26.70
2023-05-25T21:38:30.893Z,27.52
2023-05-25T21:40:58.741Z,29.88
2023-05-25T21:43:27.195Z,31.70
2023-05-25T21:45:53.905Z,28.35
2023-05-25T21:48:21.154Z,31.40
2023-05-25T21:50:49.966Z,28.17
2023-05-25T21:53:16.616Z,30.77
2023-05-25T21:55:43.488Z,32.08
2023-05-25T21:58:10.404Z,29.80
2023-05-25T22:00:37.199Z,29.73
2023-05-25T22:03:04.101Z,30.13
2023-05-25T22:05:34.338Z,34.67
2023-05-25T22:08:02.582Z,30.90
2023-05-25T22:10:29.207Z,30.20
2023-05-25T22:12:56.244Z,32.88
2023-05-25T22:15:26.099Z,32.78
2023-05-25T22:17:52.891Z,36.05
2023-05-25T22:20:19.797Z,32.13
2023-05-25T22:22:46.459Z,34.22
2023-05-25T22:25:13.444Z,33.78
2023-05-25T22:27:40.428Z,32.10
2023-05-25T22:30:07.540Z,32.88
2023-05-25T22:32:34.163Z,30.02
2023-05-25T22:35:01.428Z,29.92
2023-05-25T22:37:27.975Z,34.92
2023-05-25T22:39:54.562Z,29.35
2023-05-25T22:42:21.774Z,33.72
2023-05-25T22:44:49.348Z,37.58
2023-05-25T22:47:17.697Z,31.73
2023-05-25T22:49:44.616Z,28.77
2023-05-25T22:52:11.629Z,35.40
2023-05-25T22:54:38.311Z,29.35
2023-05-25T22:57:05.651Z,28.25
2023-05-25T22:59:32.337Z,31.63
2023-05-25T23:01:58.960Z,29.08
2023-05-25T23:04:25.542Z,33.65
2023-05-25T23:06:52.189Z,29.15
2023-05-25T23:09:18.770Z,31.10
2023-05-25T23:11:45.363Z,30.80
2023-05-25T23:14:12.015Z,31.70
2023-05-25T23:16:38.689Z,30.92
2023-05-25T23:19:06.242Z,27.50
2023-05-25T23:21:33.644Z,28.25
2023-05-25T23:24:00.419Z,30.83
2023-05-25T23:26:27.016Z,24.80
2023-05-25T23:28:53.706Z,26.92
2023-05-25T23:31:20.466Z,25.05
2023-05-25T23:33:47.065Z,24.45
2023-05-25T23:36:14.061Z,27.42
2023-05-25T23:38:41.109Z,25.27
2023-05-25T23:41:08.240Z,24.75
2023-05-25T23:43:34.796Z,26.42
2023-05-25T23:46:02.397Z,26.58
2023-05-25T23:48:29.053Z,27.60
2023-05-25T23:50:55.833Z,25.40
2023-05-25T23:53:22.493Z,23.02
2023-05-25T23:55:49.229Z,27.42
2023-05-25T23:58:15.849Z,25.73
